sensor_id;sensor_type;location;lat;lon;timestamp;temperature;humidity
1129;DHT22;553;51.038;7.216;2022-10-16T00:01:17;14.60;99.90
1129;DHT22;553;51.038;7.216;2022-10-16T00:03:45;14.60;99.90
1129;DHT22;553;51.038;7.216;2022-10-16T00:06:13;14.80;99.90
1129;DHT22;553;51.038;7.216;2022-10-16T00:08:40;14.70;99.90
1129;DHT22;553;51.038;7.216;2022-10-16T00:11:13;14.80;99.90
1129;DHT22;553;51.038;7.216;2022-10-16T00:13:42;14.80;99.90
1129;DHT22;553;51.038;7.216;2022-10-16T00:16:10;14.90;99.90
1129;DHT22;553;51.038;7.216;2022-10-16T00:18:37;14.90;99.90
1129;DHT22;553;51.038;7.216;2022-10-16T00:21:09;15.00;99.90
1129;DHT22;553;51.038;7.216;2022-10-16T00:23:37;14.90;99.90
1129;DHT22;553;51.038;7.216;2022-10-16T00:26:06;14.90;99.90
1129;DHT22;553;51.038;7.216;2022-10-16T00:28:34;15.00;99.90
1129;DHT22;553;51.038;7.216;2022-10-16T00:31:05;15.00;99.90
1129;DHT22;553;51.038;7.216;2022-10-16T00:33:32;15.00;99.90
1129;DHT22;553;51.038;7.216;2022-10-16T00:36:00;15.00;99.90
1129;DHT22;553;51.038;7.216;2022-10-16T00:38:27;15.00;99.90
1129;DHT22;553;51.038;7.216;2022-10-16T00:40:54;15.00;99.90
1129;DHT22;553;51.038;7.216;2022-10-16T00:43:49;15.00;99.90
1129;DHT22;553;51.038;7.216;2022-10-16T00:49:06;15.00;99.90
1129;DHT22;553;51.038;7.216;2022-10-16T00:51:40;15.10;99.90
1129;DHT22;553;51.038;7.216;2022-10-16T00:54:12;15.10;99.90
1129;DHT22;553;51.038;7.216;2022-10-16T00:56:40;15.10;99.90
1129;DHT22;553;51.038;7.216;2022-10-16T00:59:25;15.00;99.90
1129;DHT22;553;51.038;7.216;2022-10-16T01:01:53;15.00;99.90
1129;DHT22;553;51.038;7.216;2022-10-16T01:04:21;14.90;99.90
1129;DHT22;553;51.038;7.216;2022-10-16T01:07:12;14.90;99.90
1129;DHT22;553;51.038;7.216;2022-10-16T01:12:59;14.70;99.90
1129;DHT22;553;51.038;7.216;2022-10-16T01:15:37;14.70;99.90
1129;DHT22;553;51.038;7.216;2022-10-16T01:20:59;14.60;99.90
1129;DHT22;553;51.038;7.216;2022-10-16T01:24:02;14.60;99.90
1129;DHT22;553;51.038;7.216;2022-10-16T01:31:55;14.60;99.90
1129;DHT22;553;51.038;7.216;2022-10-16T01:34:33;14.60;99.90
1129;DHT22;553;51.038;7.216;2022-10-16T01:37:16;14.60;99.90
1129;DHT22;553;51.038;7.216;2022-10-16T01:39:47;14.60;99.90
1129;DHT22;553;51.038;7.216;2022-10-16T01:42:23;14.60;99.90
1129;DHT22;553;51.038;7.216;2022-10-16T01:44:51;14.50;99.90
1129;DHT22;553;51.038;7.216;2022-10-16T01:47:22;14.40;99.90
1129;DHT22;553;51.038;7.216;2022-10-16T01:49:51;14.40;99.90
1129;DHT22;553;51.038;7.216;2022-10-16T01:52:22;14.40;99.90
1129;DHT22;553;51.038;7.216;2022-10-16T01:54:52;14.40;99.90
1129;DHT22;553;51.038;7.216;2022-10-16T01:57:23;14.40;99.90
1129;DHT22;553;51.038;7.216;2022-10-16T01:59:54;14.30;99.90
1129;DHT22;553;51.038;7.216;2022-10-16T02:02:22;14.30;99.90
1129;DHT22;553;51.038;7.216;2022-10-16T02:04:57;14.20;99.90
1129;DHT22;553;51.038;7.216;2022-10-16T02:07:26;14.20;99.90
1129;DHT22;553;51.038;7.216;2022-10-16T02:09:54;14.20;99.90
1129;DHT22;553;51.038;7.216;2022-10-16T02:12:28;14.10;99.90
1129;DHT22;553;51.038;7.216;2022-10-16T02:14:56;14.10;99.90
1129;DHT22;553;51.038;7.216;2022-10-16T02:17:23;14.00;99.90
1129;DHT22;553;51.038;7.216;2022-10-16T02:19:53;14.00;99.90
1129;DHT22;553;51.038;7.216;2022-10-16T02:22:40;14.00;99.90
1129;DHT22;553;51.038;7.216;2022-10-16T02:25:21;14.00;99.90
1129;DHT22;553;51.038;7.216;2022-10-16T02:28:09;13.90;99.90
1129;DHT22;553;51.038;7.216;2022-10-16T02:30:50;14.00;99.90
1129;DHT22;553;51.038;7.216;2022-10-16T02:33:18;14.00;99.90
1129;DHT22;553;51.038;7.216;2022-10-16T02:35:47;14.00;99.90
1129;DHT22;553;51.038;7.216;2022-10-16T02:38:16;14.10;99.90
1129;DHT22;553;51.038;7.216;2022-10-16T02:40:44;14.10;99.90
1129;DHT22;553;51.038;7.216;2022-10-16T02:43:11;14.10;99.90
1129;DHT22;553;51.038;7.216;2022-10-16T02:45:38;14.10;99.90
1129;DHT22;553;51.038;7.216;2022-10-16T02:48:06;14.10;99.90
1129;DHT22;553;51.038;7.216;2022-10-16T02:50:32;14.10;99.90
1129;DHT22;553;51.038;7.216;2022-10-16T02:52:59;14.20;99.90
1129;DHT22;553;51.038;7.216;2022-10-16T02:55:25;14.20;99.90
1129;DHT22;553;51.038;7.216;2022-10-16T02:57:54;14.20;99.90
1129;DHT22;553;51.038;7.216;2022-10-16T03:00:20;14.30;99.90
1129;DHT22;553;51.038;7.216;2022-10-16T03:02:47;14.30;99.90
1129;DHT22;553;51.038;7.216;2022-10-16T03:05:14;14.30;99.90
1129;DHT22;553;51.038;7.216;2022-10-16T03:07:41;14.30;99.90
1129;DHT22;553;51.038;7.216;2022-10-16T03:10:08;14.40;99.90
1129;DHT22;553;51.038;7.216;2022-10-16T03:12:35;14.40;99.90
1129;DHT22;553;51.038;7.216;2022-10-16T03:15:02;14.40;99.90
1129;DHT22;553;51.038;7.216;2022-10-16T03:17:28;14.40;99.90
1129;DHT22;553;51.038;7.216;2022-10-16T03:19:55;14.40;99.90
1129;DHT22;553;51.038;7.216;2022-10-16T03:22:22;14.50;99.90
1129;DHT22;553;51.038;7.216;2022-10-16T03:24:48;14.50;99.90
1129;DHT22;553;51.038;7.216;2022-10-16T03:27:15;14.40;99.90
1129;DHT22;553;51.038;7.216;2022-10-16T03:29:42;14.50;99.90
1129;DHT22;553;51.038;7.216;2022-10-16T03:32:08;14.40;99.90
1129;DHT22;553;51.038;7.216;2022-10-16T03:34:35;14.40;99.90
1129;DHT22;553;51.038;7.216;2022-10-16T03:37:01;14.40;99.90
1129;DHT22;553;51.038;7.216;2022-10-16T03:39:28;14.40;99.90
1129;DHT22;553;51.038;7.216;2022-10-16T03:41:55;14.40;99.90
1129;DHT22;553;51.038;7.216;2022-10-16T03:44:21;14.30;99.90
1129;DHT22;553;51.038;7.216;2022-10-16T03:46:48;14.30;99.90
1129;DHT22;553;51.038;7.216;2022-10-16T03:49:15;14.30;99.90
1129;DHT22;553;51.038;7.216;2022-10-16T03:51:41;14.30;99.90
1129;DHT22;553;51.038;7.216;2022-10-16T03:54:10;14.30;99.90
1129;DHT22;553;51.038;7.216;2022-10-16T03:56:36;14.30;99.90
1129;DHT22;553;51.038;7.216;2022-10-16T03:59:03;14.30;99.90
1129;DHT22;553;51.038;7.216;2022-10-16T04:01:30;14.30;99.90
1129;DHT22;553;51.038;7.216;2022-10-16T04:03:56;14.30;99.90
1129;DHT22;553;51.038;7.216;2022-10-16T04:06:23;14.30;99.90
1129;DHT22;553;51.038;7.216;2022-10-16T04:08:50;14.30;99.90
1129;DHT22;553;51.038;7.216;2022-10-16T04:11:16;14.40;99.90
1129;DHT22;553;51.038;7.216;2022-10-16T04:13:43;14.40;99.90
1129;DHT22;553;51.038;7.216;2022-10-16T04:16:10;14.30;99.90
1129;DHT22;553;51.038;7.216;2022-10-16T04:18:36;14.30;99.90
1129;DHT22;553;51.038;7.216;2022-10-16T04:21:05;14.30;99.90
1129;DHT22;553;51.038;7.216;2022-10-16T04:23:32;14.30;99.90
1129;DHT22;553;51.038;7.216;2022-10-16T04:25:59;14.30;99.90
1129;DHT22;553;51.038;7.216;2022-10-16T04:28:27;14.30;99.90
1129;DHT22;553;51.038;7.216;2022-10-16T04:30:54;14.30;99.90
1129;DHT22;553;51.038;7.216;2022-10-16T04:33:20;14.30;99.90
1129;DHT22;553;51.038;7.216;2022-10-16T04:35:47;14.30;99.90
1129;DHT22;553;51.038;7.216;2022-10-16T04:38:14;14.30;99.90
1129;DHT22;553;51.038;7.216;2022-10-16T04:40:42;14.30;99.90
1129;DHT22;553;51.038;7.216;2022-10-16T04:43:08;14.40;99.90
1129;DHT22;553;51.038;7.216;2022-10-16T04:45:35;14.40;99.90
1129;DHT22;553;51.038;7.216;2022-10-16T04:48:02;14.40;99.90
1129;DHT22;553;51.038;7.216;2022-10-16T04:50:28;14.40;99.90
1129;DHT22;553;51.038;7.216;2022-10-16T04:53:05;14.40;99.90
1129;DHT22;553;51.038;7.216;2022-10-16T04:55:32;14.40;99.90
1129;DHT22;553;51.038;7.216;2022-10-16T04:57:59;14.30;99.90
1129;DHT22;553;51.038;7.216;2022-10-16T05:00:25;14.30;99.90
1129;DHT22;553;51.038;7.216;2022-10-16T05:02:52;14.20;99.90
1129;DHT22;553;51.038;7.216;2022-10-16T05:05:19;14.20;99.90
1129;DHT22;553;51.038;7.216;2022-10-16T05:07:47;14.20;99.90
1129;DHT22;553;51.038;7.216;2022-10-16T05:10:14;14.20;99.90
1129;DHT22;553;51.038;7.216;2022-10-16T05:12:40;14.20;99.90
1129;DHT22;553;51.038;7.216;2022-10-16T05:15:07;14.20;99.90
1129;DHT22;553;51.038;7.216;2022-10-16T05:17:34;14.20;99.90
1129;DHT22;553;51.038;7.216;2022-10-16T05:20:01;14.20;99.90
1129;DHT22;553;51.038;7.216;2022-10-16T05:22:28;14.20;99.90
1129;DHT22;553;51.038;7.216;2022-10-16T05:24:54;14.20;99.90
1129;DHT22;553;51.038;7.216;2022-10-16T05:27:21;14.20;99.90
1129;DHT22;553;51.038;7.216;2022-10-16T05:29:48;14.20;99.90
1129;DHT22;553;51.038;7.216;2022-10-16T05:32:16;14.10;99.90
1129;DHT22;553;51.038;7.216;2022-10-16T05:34:44;14.20;99.90
1129;DHT22;553;51.038;7.216;2022-10-16T05:37:11;14.10;99.90
1129;DHT22;553;51.038;7.216;2022-10-16T05:39:38;14.20;99.90
1129;DHT22;553;51.038;7.216;2022-10-16T05:42:05;14.20;99.90
1129;DHT22;553;51.038;7.216;2022-10-16T05:44:32;14.20;99.90
1129;DHT22;553;51.038;7.216;2022-10-16T05:46:59;14.20;99.90
1129;DHT22;553;51.038;7.216;2022-10-16T05:49:26;14.20;99.90
1129;DHT22;553;51.038;7.216;2022-10-16T05:51:53;14.20;99.90
1129;DHT22;553;51.038;7.216;2022-10-16T05:54:19;14.30;99.90
1129;DHT22;553;51.038;7.216;2022-10-16T05:56:46;14.30;99.90
1129;DHT22;553;51.038;7.216;2022-10-16T05:59:12;14.30;99.90
1129;DHT22;553;51.038;7.216;2022-10-16T06:01:39;14.30;99.90
1129;DHT22;553;51.038;7.216;2022-10-16T06:04:06;14.30;99.90
1129;DHT22;553;51.038;7.216;2022-10-16T06:06:33;14.30;99.90
1129;DHT22;553;51.038;7.216;2022-10-16T06:08:59;14.30;99.90
1129;DHT22;553;51.038;7.216;2022-10-16T06:11:29;14.40;99.90
1129;DHT22;553;51.038;7.216;2022-10-16T06:13:58;14.40;99.90
1129;DHT22;553;51.038;7.216;2022-10-16T06:16:28;14.30;99.90
1129;DHT22;553;51.038;7.216;2022-10-16T06:18:55;14.30;99.90
1129;DHT22;553;51.038;7.216;2022-10-16T06:21:24;14.30;99.90
1129;DHT22;553;51.038;7.216;2022-10-16T06:23:51;14.30;99.90
1129;DHT22;553;51.038;7.216;2022-10-16T06:26:20;14.30;99.90
1129;DHT22;553;51.038;7.216;2022-10-16T06:28:47;14.30;99.90
1129;DHT22;553;51.038;7.216;2022-10-16T06:31:15;14.30;99.90
1129;DHT22;553;51.038;7.216;2022-10-16T06:33:42;14.30;99.90
1129;DHT22;553;51.038;7.216;2022-10-16T06:36:12;14.30;99.90
1129;DHT22;553;51.038;7.216;2022-10-16T06:38:39;14.30;99.90
1129;DHT22;553;51.038;7.216;2022-10-16T06:41:09;14.20;99.90
1129;DHT22;553;51.038;7.216;2022-10-16T06:43:35;14.30;99.90
1129;DHT22;553;51.038;7.216;2022-10-16T06:46:03;14.30;99.90
1129;DHT22;553;51.038;7.216;2022-10-16T06:48:30;14.40;99.90
1129;DHT22;553;51.038;7.216;2022-10-16T06:51:35;14.40;99.90
1129;DHT22;553;51.038;7.216;2022-10-16T06:53:55;14.40;99.90
1129;DHT22;553;51.038;7.216;2022-10-16T06:56:30;14.40;99.90
1129;DHT22;553;51.038;7.216;2022-10-16T06:58:58;14.50;99.90
1129;DHT22;553;51.038;7.216;2022-10-16T07:01:26;14.60;99.90
1129;DHT22;553;51.038;7.216;2022-10-16T07:03:53;14.60;99.90
1129;DHT22;553;51.038;7.216;2022-10-16T07:06:21;14.70;99.90
1129;DHT22;553;51.038;7.216;2022-10-16T07:08:48;14.80;99.90
1129;DHT22;553;51.038;7.216;2022-10-16T07:11:18;14.80;99.90
1129;DHT22;553;51.038;7.216;2022-10-16T07:13:46;14.80;99.90
1129;DHT22;553;51.038;7.216;2022-10-16T07:16:22;14.90;99.90
1129;DHT22;553;51.038;7.216;2022-10-16T07:18:49;14.90;99.90
1129;DHT22;553;51.038;7.216;2022-10-16T07:21:21;14.90;99.90
1129;DHT22;553;51.038;7.216;2022-10-16T07:23:52;15.00;99.90
1129;DHT22;553;51.038;7.216;2022-10-16T07:26:19;15.00;99.90
1129;DHT22;553;51.038;7.216;2022-10-16T07:28:46;15.10;99.90
1129;DHT22;553;51.038;7.216;2022-10-16T07:31:14;15.20;99.90
1129;DHT22;553;51.038;7.216;2022-10-16T07:33:43;15.30;99.90
1129;DHT22;553;51.038;7.216;2022-10-16T07:36:11;15.40;99.90
1129;DHT22;553;51.038;7.216;2022-10-16T07:38:42;15.40;99.90
1129;DHT22;553;51.038;7.216;2022-10-16T07:41:15;15.50;99.90
1129;DHT22;553;51.038;7.216;2022-10-16T07:43:52;15.50;99.90
1129;DHT22;553;51.038;7.216;2022-10-16T07:46:20;15.60;99.90
1129;DHT22;553;51.038;7.216;2022-10-16T07:48:48;15.60;99.90
1129;DHT22;553;51.038;7.216;2022-10-16T07:51:21;15.60;99.90
1129;DHT22;553;51.038;7.216;2022-10-16T07:53:48;15.70;99.90
1129;DHT22;553;51.038;7.216;2022-10-16T07:56:15;15.70;99.90
1129;DHT22;553;51.038;7.216;2022-10-16T07:58:43;15.80;99.90
1129;DHT22;553;51.038;7.216;2022-10-16T08:01:11;15.80;99.90
1129;DHT22;553;51.038;7.216;2022-10-16T08:03:48;15.90;99.90
1129;DHT22;553;51.038;7.216;2022-10-16T08:06:15;16.10;99.90
1129;DHT22;553;51.038;7.216;2022-10-16T08:08:42;16.20;99.90
1129;DHT22;553;51.038;7.216;2022-10-16T08:11:09;16.40;99.90
1129;DHT22;553;51.038;7.216;2022-10-16T08:13:36;16.70;99.90
1129;DHT22;553;51.038;7.216;2022-10-16T08:16:03;16.80;99.90
1129;DHT22;553;51.038;7.216;2022-10-16T08:18:35;17.10;99.90
1129;DHT22;553;51.038;7.216;2022-10-16T08:21:02;17.40;99.90
1129;DHT22;553;51.038;7.216;2022-10-16T08:23:29;17.40;99.90
1129;DHT22;553;51.038;7.216;2022-10-16T08:26:02;17.70;99.90
1129;DHT22;553;51.038;7.216;2022-10-16T08:28:30;18.00;99.90
1129;DHT22;553;51.038;7.216;2022-10-16T08:31:05;18.20;99.90
1129;DHT22;553;51.038;7.216;2022-10-16T08:33:32;18.50;99.90
1129;DHT22;553;51.038;7.216;2022-10-16T08:35:58;18.90;99.50
1129;DHT22;553;51.038;7.216;2022-10-16T08:38:25;19.20;98.10
1129;DHT22;553;51.038;7.216;2022-10-16T08:41:16;19.30;97.60
1129;DHT22;553;51.038;7.216;2022-10-16T08:46:46;19.60;96.10
1129;DHT22;553;51.038;7.216;2022-10-16T08:49:17;19.50;94.60
1129;DHT22;553;51.038;7.216;2022-10-16T08:51:44;19.30;96.90
1129;DHT22;553;51.038;7.216;2022-10-16T08:54:33;19.50;95.30
1129;DHT22;553;51.038;7.216;2022-10-16T08:57:16;19.60;95.80
1129;DHT22;553;51.038;7.216;2022-10-16T08:59:48;19.90;95.40
1129;DHT22;553;51.038;7.216;2022-10-16T09:02:50;20.10;94.00
1129;DHT22;553;51.038;7.216;2022-10-16T09:10:56;20.40;94.00
1129;DHT22;553;51.038;7.216;2022-10-16T09:13:33;20.40;91.80
1129;DHT22;553;51.038;7.216;2022-10-16T09:21:37;20.40;91.80
1129;DHT22;553;51.038;7.216;2022-10-16T09:24:15;20.40;91.50
1129;DHT22;553;51.038;7.216;2022-10-16T09:26:42;20.50;92.70
1129;DHT22;553;51.038;7.216;2022-10-16T09:29:12;20.70;91.30
1129;DHT22;553;51.038;7.216;2022-10-16T09:31:39;20.90;91.20
1129;DHT22;553;51.038;7.216;2022-10-16T09:34:08;20.80;90.50
1129;DHT22;553;51.038;7.216;2022-10-16T09:36:43;20.70;89.00
1129;DHT22;553;51.038;7.216;2022-10-16T09:39:11;20.60;90.10
1129;DHT22;553;51.038;7.216;2022-10-16T09:41:42;20.60;90.90
1129;DHT22;553;51.038;7.216;2022-10-16T09:44:28;20.70;90.70
1129;DHT22;553;51.038;7.216;2022-10-16T09:47:15;21.10;90.00
1129;DHT22;553;51.038;7.216;2022-10-16T09:49:58;20.90;88.80
1129;DHT22;553;51.038;7.216;2022-10-16T09:52:29;20.80;88.90
1129;DHT22;553;51.038;7.216;2022-10-16T09:54:58;20.90;88.10
1129;DHT22;553;51.038;7.216;2022-10-16T09:57:26;21.10;88.50
1129;DHT22;553;51.038;7.216;2022-10-16T09:59:55;21.20;88.00
1129;DHT22;553;51.038;7.216;2022-10-16T10:02:31;20.90;88.50
1129;DHT22;553;51.038;7.216;2022-10-16T10:05:01;20.70;90.40
1129;DHT22;553;51.038;7.216;2022-10-16T10:07:31;20.60;88.70
1129;DHT22;553;51.038;7.216;2022-10-16T10:10:04;20.70;88.40
1129;DHT22;553;51.038;7.216;2022-10-16T10:12:32;20.50;88.50
1129;DHT22;553;51.038;7.216;2022-10-16T10:15:09;20.80;88.00
1129;DHT22;553;51.038;7.216;2022-10-16T10:17:50;20.80;86.60
1129;DHT22;553;51.038;7.216;2022-10-16T10:20:31;20.60;88.40
1129;DHT22;553;51.038;7.216;2022-10-16T10:23:21;20.80;88.30
1129;DHT22;553;51.038;7.216;2022-10-16T10:26:03;21.00;87.00
1129;DHT22;553;51.038;7.216;2022-10-16T10:28:41;21.10;86.30
1129;DHT22;553;51.038;7.216;2022-10-16T10:31:20;21.20;86.30
1129;DHT22;553;51.038;7.216;2022-10-16T10:34:11;20.90;85.70
1129;DHT22;553;51.038;7.216;2022-10-16T10:36:41;20.70;86.30
1129;DHT22;553;51.038;7.216;2022-10-16T10:44:55;20.60;85.80
1129;DHT22;553;51.038;7.216;2022-10-16T10:47:35;20.30;86.20
1129;DHT22;553;51.038;7.216;2022-10-16T10:56:24;19.90;88.10
1129;DHT22;553;51.038;7.216;2022-10-16T11:01:39;20.10;88.90
1129;DHT22;553;51.038;7.216;2022-10-16T11:07:04;20.20;88.70
1129;DHT22;553;51.038;7.216;2022-10-16T11:09:43;20.30;89.80
1129;DHT22;553;51.038;7.216;2022-10-16T11:12:17;20.50;87.50
1129;DHT22;553;51.038;7.216;2022-10-16T11:17:44;20.30;87.60
1129;DHT22;553;51.038;7.216;2022-10-16T11:20:24;20.30;88.10
1129;DHT22;553;51.038;7.216;2022-10-16T11:22:56;20.30;85.90
1129;DHT22;553;51.038;7.216;2022-10-16T11:25:31;20.30;85.50
1129;DHT22;553;51.038;7.216;2022-10-16T11:30:50;20.40;86.80
1129;DHT22;553;51.038;7.216;2022-10-16T11:33:46;20.40;86.60
1129;DHT22;553;51.038;7.216;2022-10-16T11:36:23;20.40;85.80
1129;DHT22;553;51.038;7.216;2022-10-16T11:47:24;20.70;86.00
1129;DHT22;553;51.038;7.216;2022-10-16T11:50:38;20.70;86.40
1129;DHT22;553;51.038;7.216;2022-10-16T11:55:59;20.80;84.50
1129;DHT22;553;51.038;7.216;2022-10-16T12:01:18;20.60;84.90
1129;DHT22;553;51.038;7.216;2022-10-16T12:06:39;20.40;85.20
1129;DHT22;553;51.038;7.216;2022-10-16T12:09:16;20.30;85.50
1129;DHT22;553;51.038;7.216;2022-10-16T12:11:45;20.40;85.00
1129;DHT22;553;51.038;7.216;2022-10-16T12:19:18;20.30;86.60
1129;DHT22;553;51.038;7.216;2022-10-16T12:21:45;20.50;87.10
1129;DHT22;553;51.038;7.216;2022-10-16T12:24:32;20.50;87.10
1129;DHT22;553;51.038;7.216;2022-10-16T12:27:00;20.40;86.50
1129;DHT22;553;51.038;7.216;2022-10-16T12:32:01;20.20;86.60
1129;DHT22;553;51.038;7.216;2022-10-16T12:34:35;20.20;87.00
1129;DHT22;553;51.038;7.216;2022-10-16T12:37:26;20.20;88.00
1129;DHT22;553;51.038;7.216;2022-10-16T12:39:54;20.40;88.00
1129;DHT22;553;51.038;7.216;2022-10-16T12:44:55;20.40;83.80
1129;DHT22;553;51.038;7.216;2022-10-16T12:49:57;20.70;84.80
1129;DHT22;553;51.038;7.216;2022-10-16T12:55:00;20.80;85.70
1129;DHT22;553;51.038;7.216;2022-10-16T12:57:30;20.80;84.60
1129;DHT22;553;51.038;7.216;2022-10-16T13:11:21;20.70;82.80
1129;DHT22;553;51.038;7.216;2022-10-16T13:28:10;20.50;84.70
1129;DHT22;553;51.038;7.216;2022-10-16T13:30:43;20.50;84.60
1129;DHT22;553;51.038;7.216;2022-10-16T13:33:14;20.60;84.90
1129;DHT22;553;51.038;7.216;2022-10-16T13:35:53;20.60;84.40
1129;DHT22;553;51.038;7.216;2022-10-16T13:38:25;20.60;85.00
1129;DHT22;553;51.038;7.216;2022-10-16T13:40:58;20.70;85.60
1129;DHT22;553;51.038;7.216;2022-10-16T13:43:39;20.70;85.60
1129;DHT22;553;51.038;7.216;2022-10-16T13:46:12;20.60;85.90
1129;DHT22;553;51.038;7.216;2022-10-16T13:48:40;20.70;85.90
1129;DHT22;553;51.038;7.216;2022-10-16T13:51:17;20.70;86.70
1129;DHT22;553;51.038;7.216;2022-10-16T13:53:45;20.70;86.90
1129;DHT22;553;51.038;7.216;2022-10-16T13:56:20;20.60;86.40
1129;DHT22;553;51.038;7.216;2022-10-16T13:59:01;20.60;86.70
1129;DHT22;553;51.038;7.216;2022-10-16T14:01:30;20.60;87.40
1129;DHT22;553;51.038;7.216;2022-10-16T14:04:06;20.40;87.50
1129;DHT22;553;51.038;7.216;2022-10-16T14:06:35;20.50;88.10
1129;DHT22;553;51.038;7.216;2022-10-16T14:12:10;20.50;89.00
1129;DHT22;553;51.038;7.216;2022-10-16T14:14:42;20.30;88.30
1129;DHT22;553;51.038;7.216;2022-10-16T14:17:33;20.40;88.90
1129;DHT22;553;51.038;7.216;2022-10-16T14:20:04;20.40;88.40
1129;DHT22;553;51.038;7.216;2022-10-16T14:22:38;20.40;88.10
1129;DHT22;553;51.038;7.216;2022-10-16T14:25:28;20.40;88.40
1129;DHT22;553;51.038;7.216;2022-10-16T14:27:58;20.40;89.40
1129;DHT22;553;51.038;7.216;2022-10-16T14:30:34;20.30;89.20
1129;DHT22;553;51.038;7.216;2022-10-16T14:33:18;20.20;89.90
1129;DHT22;553;51.038;7.216;2022-10-16T14:35:46;20.20;90.20
1129;DHT22;553;51.038;7.216;2022-10-16T14:38:19;20.20;90.70
1129;DHT22;553;51.038;7.216;2022-10-16T14:40:48;20.30;90.10
1129;DHT22;553;51.038;7.216;2022-10-16T14:43:22;20.20;90.50
1129;DHT22;553;51.038;7.216;2022-10-16T14:45:55;20.20;90.80
1129;DHT22;553;51.038;7.216;2022-10-16T14:48:22;20.20;91.00
1129;DHT22;553;51.038;7.216;2022-10-16T14:50:49;20.10;91.00
1129;DHT22;553;51.038;7.216;2022-10-16T14:53:16;20.00;91.60
1129;DHT22;553;51.038;7.216;2022-10-16T14:55:43;20.00;91.60
1129;DHT22;553;51.038;7.216;2022-10-16T14:58:16;20.00;91.60
1129;DHT22;553;51.038;7.216;2022-10-16T15:00:43;20.00;91.90
1129;DHT22;553;51.038;7.216;2022-10-16T15:03:10;19.90;92.20
1129;DHT22;553;51.038;7.216;2022-10-16T15:05:37;19.90;92.90
1129;DHT22;553;51.038;7.216;2022-10-16T15:08:04;19.80;93.30
1129;DHT22;553;51.038;7.216;2022-10-16T15:10:40;19.80;93.40
1129;DHT22;553;51.038;7.216;2022-10-16T15:13:11;19.80;93.10
1129;DHT22;553;51.038;7.216;2022-10-16T15:15:44;19.80;93.10
1129;DHT22;553;51.038;7.216;2022-10-16T15:18:11;19.80;93.10
1129;DHT22;553;51.038;7.216;2022-10-16T15:20:39;19.80;93.00
1129;DHT22;553;51.038;7.216;2022-10-16T15:23:12;19.60;93.50
1129;DHT22;553;51.038;7.216;2022-10-16T15:25:52;19.70;93.40
1129;DHT22;553;51.038;7.216;2022-10-16T15:28:21;19.60;93.80
1129;DHT22;553;51.038;7.216;2022-10-16T15:30:53;19.60;94.00
1129;DHT22;553;51.038;7.216;2022-10-16T15:33:22;19.60;93.90
1129;DHT22;553;51.038;7.216;2022-10-16T15:35:51;19.50;94.60
1129;DHT22;553;51.038;7.216;2022-10-16T15:38:20;19.50;94.20
1129;DHT22;553;51.038;7.216;2022-10-16T15:40:47;19.50;94.10
1129;DHT22;553;51.038;7.216;2022-10-16T15:43:14;19.50;94.60
1129;DHT22;553;51.038;7.216;2022-10-16T15:45:41;19.40;95.50
1129;DHT22;553;51.038;7.216;2022-10-16T15:48:12;19.40;95.60
1129;DHT22;553;51.038;7.216;2022-10-16T15:50:40;19.40;95.10
1129;DHT22;553;51.038;7.216;2022-10-16T15:53:07;19.40;95.50
1129;DHT22;553;51.038;7.216;2022-10-16T15:55:34;19.30;95.40
1129;DHT22;553;51.038;7.216;2022-10-16T15:58:01;19.20;95.80
1129;DHT22;553;51.038;7.216;2022-10-16T16:00:27;19.20;95.30
1129;DHT22;553;51.038;7.216;2022-10-16T16:02:54;19.10;95.60
1129;DHT22;553;51.038;7.216;2022-10-16T16:05:21;19.10;95.80
1129;DHT22;553;51.038;7.216;2022-10-16T16:07:49;19.10;95.90
1129;DHT22;553;51.038;7.216;2022-10-16T16:10:17;19.00;96.90
1129;DHT22;553;51.038;7.216;2022-10-16T16:12:49;19.10;96.50
1129;DHT22;553;51.038;7.216;2022-10-16T16:15:19;19.10;96.90
1129;DHT22;553;51.038;7.216;2022-10-16T16:17:47;19.10;97.50
1129;DHT22;553;51.038;7.216;2022-10-16T16:20:14;18.90;97.50
1129;DHT22;553;51.038;7.216;2022-10-16T16:22:41;18.90;97.70
1129;DHT22;553;51.038;7.216;2022-10-16T16:25:08;18.80;97.70
1129;DHT22;553;51.038;7.216;2022-10-16T16:27:35;18.80;98.00
1129;DHT22;553;51.038;7.216;2022-10-16T16:30:06;18.60;98.10
1129;DHT22;553;51.038;7.216;2022-10-16T16:32:34;18.60;98.40
1129;DHT22;553;51.038;7.216;2022-10-16T16:35:01;18.60;98.60
1129;DHT22;553;51.038;7.216;2022-10-16T16:37:29;18.50;99.30
1129;DHT22;553;51.038;7.216;2022-10-16T16:39:56;18.50;99.60
1129;DHT22;553;51.038;7.216;2022-10-16T16:42:28;18.40;99.90
1129;DHT22;553;51.038;7.216;2022-10-16T16:44:55;18.50;99.90
1129;DHT22;553;51.038;7.216;2022-10-16T16:47:22;18.40;99.90
1129;DHT22;553;51.038;7.216;2022-10-16T16:49:49;18.50;99.90
1129;DHT22;553;51.038;7.216;2022-10-16T16:52:15;18.50;99.90
1129;DHT22;553;51.038;7.216;2022-10-16T16:54:42;18.50;99.90
1129;DHT22;553;51.038;7.216;2022-10-16T16:57:10;18.50;99.90
1129;DHT22;553;51.038;7.216;2022-10-16T16:59:37;18.40;99.90
1129;DHT22;553;51.038;7.216;2022-10-16T17:02:04;18.30;99.90
1129;DHT22;553;51.038;7.216;2022-10-16T17:04:30;18.30;99.90
1129;DHT22;553;51.038;7.216;2022-10-16T17:06:57;18.30;99.90
1129;DHT22;553;51.038;7.216;2022-10-16T17:09:24;18.30;99.90
1129;DHT22;553;51.038;7.216;2022-10-16T17:11:50;18.30;99.90
1129;DHT22;553;51.038;7.216;2022-10-16T17:14:17;18.30;99.90
1129;DHT22;553;51.038;7.216;2022-10-16T17:16:44;18.30;99.90
1129;DHT22;553;51.038;7.216;2022-10-16T17:19:14;18.30;99.90
1129;DHT22;553;51.038;7.216;2022-10-16T17:21:41;18.20;99.90
1129;DHT22;553;51.038;7.216;2022-10-16T17:24:09;18.20;99.90
1129;DHT22;553;51.038;7.216;2022-10-16T17:26:36;18.10;99.90
1129;DHT22;553;51.038;7.216;2022-10-16T17:29:03;18.10;99.90
1129;DHT22;553;51.038;7.216;2022-10-16T17:31:35;18.10;99.90
1129;DHT22;553;51.038;7.216;2022-10-16T17:34:04;18.10;99.90
1129;DHT22;553;51.038;7.216;2022-10-16T17:36:33;18.10;99.90
1129;DHT22;553;51.038;7.216;2022-10-16T17:39:04;18.00;99.90
1129;DHT22;553;51.038;7.216;2022-10-16T17:41:32;18.00;99.90
1129;DHT22;553;51.038;7.216;2022-10-16T17:43:59;18.10;99.90
1129;DHT22;553;51.038;7.216;2022-10-16T17:46:26;18.10;99.90
1129;DHT22;553;51.038;7.216;2022-10-16T17:48:54;18.00;99.90
1129;DHT22;553;51.038;7.216;2022-10-16T17:51:29;18.00;99.90
1129;DHT22;553;51.038;7.216;2022-10-16T17:53:59;18.10;99.90
1129;DHT22;553;51.038;7.216;2022-10-16T17:56:27;18.10;99.90
1129;DHT22;553;51.038;7.216;2022-10-16T17:58:55;18.10;99.90
1129;DHT22;553;51.038;7.216;2022-10-16T18:01:34;18.10;99.90
1129;DHT22;553;51.038;7.216;2022-10-16T18:04:03;18.10;99.90
1129;DHT22;553;51.038;7.216;2022-10-16T18:06:33;18.10;99.90
1129;DHT22;553;51.038;7.216;2022-10-16T18:09:00;18.20;99.90
1129;DHT22;553;51.038;7.216;2022-10-16T18:11:27;18.10;99.90
1129;DHT22;553;51.038;7.216;2022-10-16T18:13:56;18.10;99.90
1129;DHT22;553;51.038;7.216;2022-10-16T18:16:24;18.10;99.90
1129;DHT22;553;51.038;7.216;2022-10-16T18:18:52;18.10;99.90
1129;DHT22;553;51.038;7.216;2022-10-16T18:21:20;18.10;99.90
1129;DHT22;553;51.038;7.216;2022-10-16T18:23:47;18.00;99.90
1129;DHT22;553;51.038;7.216;2022-10-16T18:26:18;18.00;99.90
1129;DHT22;553;51.038;7.216;2022-10-16T18:28:44;18.00;99.90
1129;DHT22;553;51.038;7.216;2022-10-16T18:31:13;18.00;99.90